CheckWX is a tool to help pilots better visualize weather data.  It is not intended as a substitute for an official pre-flight weather briefing.

12:52:04 UTC

PANA METAR
Napakiak Airport
Napakiak, Alaska, USA
Current

56 mins ago

PANA 261156Z AUTO 11006KT 10SM BKN049 OVC065 16/14 A2998 RMK AO2 RAB25E34 SLP152 P0000 60001 70001 T01560144 10167 20156 53002
Observed
Jun-26 @ 11:56 UTC
Wind
  • 110° at 6 KTS
Visibility
10 SM
Flight Rules
VFR
Cloud Levels
  • Broken at 4,900' AGL
  • Overcast at 6,500' AGL
Temperature
16°C / 61°F
Dewpoint
14°C / 57°F
Humidity
88%
Altimeter
29.98" Hg
Pressure
1015.22 hPa
Current Rain
0.01"
24 Hour Rain
0.01"
Previous

4 hours ago

PANA 260856Z AUTO 12007KT 10SM OVC047 17/13 A2998 RMK AO2 SLP150 T01670133 402060111 50001
Observed
Jun-26 @ 08:56 UTC
Wind
  • 120° at 7 KTS
Visibility
10 SM
Flight Rules
VFR
Cloud Levels
  • Overcast at 4,700' AGL
Temperature
17°C / 63°F
Dewpoint
13°C / 55°F
Humidity
77%
Altimeter
29.98" Hg
Pressure
1015.22 hPa
Previous

5 hours ago

PANA 260756Z AUTO 15010KT 10SM BKN047 OVC060 17/13 A2998 RMK AO2 SLP151 T01670133
Observed
Jun-26 @ 07:56 UTC
Wind
  • 150° at 10 KTS
Visibility
10 SM
Flight Rules
VFR
Cloud Levels
  • Broken at 4,700' AGL
  • Overcast at 6,000' AGL
Temperature
17°C / 63°F
Dewpoint
13°C / 55°F
Humidity
77%
Altimeter
29.98" Hg
Pressure
1015.22 hPa